createdAt,value
2022-08-25T00:01:46.595Z,22.69
2022-08-25T00:04:17.192Z,22.66
2022-08-25T00:06:49.335Z,22.61
2022-08-25T00:09:20.764Z,22.54
2022-08-25T00:11:51.931Z,22.92
2022-08-25T00:14:25.056Z,23.17
2022-08-25T00:16:56.115Z,23.20
2022-08-25T00:22:26.583Z,22.77
2022-08-25T00:24:55.670Z,22.54
2022-08-25T00:34:01.486Z,23.44
2022-08-25T00:36:30.561Z,23.53
2022-08-25T00:38:59.437Z,23.74
2022-08-25T00:41:30.357Z,23.60
2022-08-25T00:47:43.719Z,23.95
2022-08-25T00:51:46.818Z,24.11
2022-08-25T00:57:35.204Z,23.86
2022-08-25T01:00:08.496Z,23.90
2022-08-25T01:02:37.839Z,24.03
2022-08-25T01:05:08.095Z,24.05
2022-08-25T01:07:38.251Z,24.04
2022-08-25T01:10:09.817Z,23.91
2022-08-25T01:12:39.463Z,23.91
2022-08-25T01:15:14.827Z,23.70
2022-08-25T01:17:48.494Z,23.90
2022-08-25T01:20:20.459Z,23.78
2022-08-25T01:22:55.146Z,23.69
2022-08-25T01:25:35.148Z,23.94
2022-08-25T01:28:04.911Z,23.97
2022-08-25T01:30:34.490Z,24.15
2022-08-25T01:33:05.862Z,24.21
2022-08-25T01:35:35.895Z,24.21
2022-08-25T01:38:11.347Z,24.13
2022-08-25T01:40:42.886Z,24.06
2022-08-25T01:43:38.715Z,24.16
2022-08-25T01:46:08.090Z,23.89
2022-08-25T01:48:36.974Z,23.88
2022-08-25T01:51:06.004Z,23.96
2022-08-25T01:53:36.210Z,23.68
2022-08-25T01:56:12.858Z,23.86
2022-08-25T01:58:44.292Z,23.62
2022-08-25T02:01:16.135Z,23.77
2022-08-25T02:03:48.238Z,23.94
2022-08-25T02:06:19.770Z,23.94
2022-08-25T02:08:54.709Z,23.99
2022-08-25T02:11:24.631Z,23.95
2022-08-25T02:13:54.075Z,23.73
2022-08-25T02:16:28.422Z,23.92
2022-08-25T02:18:57.658Z,23.98
2022-08-25T02:21:27.372Z,23.83
2022-08-25T02:23:58.168Z,23.98
2022-08-25T02:26:28.110Z,23.62
2022-08-25T02:28:57.600Z,23.63
2022-08-25T02:31:27.041Z,23.80
2022-08-25T02:33:56.086Z,23.82
2022-08-25T02:36:25.850Z,23.82
2022-08-25T02:38:54.791Z,23.75
2022-08-25T02:41:30.976Z,23.72
2022-08-25T02:44:00.911Z,23.65
2022-08-25T02:46:31.174Z,23.72
2022-08-25T02:49:00.633Z,23.77
2022-08-25T02:51:30.348Z,23.81
2022-08-25T02:54:01.480Z,23.80
2022-08-25T02:56:33.057Z,23.97
2022-08-25T02:59:02.908Z,24.03
2022-08-25T03:01:33.423Z,23.95
2022-08-25T03:04:03.495Z,23.70
2022-08-25T03:06:32.592Z,23.77
2022-08-25T03:09:01.587Z,23.90
2022-08-25T03:11:31.944Z,23.99
2022-08-25T03:14:00.978Z,23.64
2022-08-25T03:16:48.680Z,23.52
2022-08-25T03:19:18.393Z,23.66
2022-08-25T03:21:47.339Z,23.54
2022-08-25T03:24:16.318Z,23.65
2022-08-25T03:26:54.438Z,23.73
2022-08-25T03:29:24.906Z,23.80
2022-08-25T03:31:59.001Z,23.57
2022-08-25T03:34:29.584Z,23.80
2022-08-25T03:36:59.459Z,23.70
2022-08-25T03:39:29.118Z,23.68
2022-08-25T03:41:59.529Z,23.68
2022-08-25T03:44:28.448Z,23.96
2022-08-25T03:46:57.397Z,24.07
2022-08-25T03:49:26.320Z,24.03
2022-08-25T03:51:56.074Z,23.98
2022-08-25T03:54:26.997Z,24.11
2022-08-25T03:56:56.293Z,24.20
2022-08-25T03:59:27.261Z,24.08
2022-08-25T04:01:56.181Z,24.15
2022-08-25T04:04:25.208Z,24.02
2022-08-25T04:06:54.341Z,24.26
2022-08-25T04:09:23.719Z,24.17
2022-08-25T04:11:53.609Z,24.07
2022-08-25T04:14:23.735Z,24.07
2022-08-25T04:16:54.416Z,24.09
2022-08-25T04:19:23.395Z,24.15
2022-08-25T04:21:54.523Z,24.27
2022-08-25T04:24:26.068Z,24.16
2022-08-25T04:26:55.072Z,24.26
2022-08-25T04:29:26.730Z,24.43
2022-08-25T04:31:57.139Z,24.29
2022-08-25T04:34:31.014Z,24.16
2022-08-25T04:37:02.666Z,24.18
2022-08-25T04:39:32.392Z,24.31
2022-08-25T04:42:02.010Z,24.34
2022-08-25T04:44:32.011Z,23.73
2022-08-25T04:47:02.445Z,23.96
2022-08-25T04:49:32.111Z,24.21
2022-08-25T04:52:00.968Z,24.40
2022-08-25T04:54:29.865Z,24.15
2022-08-25T04:57:06.610Z,24.14
2022-08-25T04:59:35.441Z,24.40
2022-08-25T05:02:06.819Z,24.38
2022-08-25T05:04:37.630Z,23.44
2022-08-25T05:07:07.083Z,23.94
2022-08-25T05:09:36.538Z,24.25
2022-08-25T05:12:06.180Z,23.88
2022-08-25T05:14:35.649Z,23.70
2022-08-25T05:17:06.951Z,24.19
2022-08-25T05:19:36.358Z,24.06
2022-08-25T05:22:05.216Z,23.96
2022-08-25T05:24:34.069Z,24.03
2022-08-25T05:27:04.048Z,24.17
2022-08-25T05:29:33.023Z,24.16
2022-08-25T05:32:01.891Z,24.55
2022-08-25T05:34:32.401Z,24.63
2022-08-25T05:37:03.445Z,24.18
2022-08-25T05:39:33.961Z,24.72
2022-08-25T05:42:02.997Z,24.84
2022-08-25T05:44:31.919Z,24.66
2022-08-25T06:17:05.882Z,25.69
2022-08-25T06:19:35.108Z,26.25
2022-08-25T06:22:07.437Z,26.41
2022-08-25T06:24:36.406Z,26.25
2022-08-25T06:27:05.744Z,26.66
2022-08-25T06:29:34.671Z,26.36
2022-08-25T06:32:05.351Z,26.78
2022-08-25T06:34:34.540Z,26.95
2022-08-25T06:37:03.631Z,27.18
2022-08-25T06:39:32.610Z,27.12
2022-08-25T06:42:01.434Z,27.29
2022-08-25T06:44:32.025Z,27.58
2022-08-25T06:47:00.935Z,27.62
2022-08-25T06:49:35.509Z,28.02
2022-08-25T06:52:05.178Z,28.30
2022-08-25T06:54:33.963Z,28.47
2022-08-25T06:57:02.979Z,28.28
2022-08-25T06:59:32.603Z,28.09
2022-08-25T07:02:01.697Z,27.45
2022-08-25T07:04:34.562Z,27.22
2022-08-25T07:07:04.586Z,27.38
2022-08-25T07:09:36.311Z,27.28
2022-08-25T07:12:08.954Z,27.39
2022-08-25T07:14:38.016Z,27.63
2022-08-25T07:17:12.040Z,27.83
2022-08-25T07:19:44.067Z,28.01
2022-08-25T07:22:12.980Z,27.63
2022-08-25T07:24:42.549Z,27.68
2022-08-25T07:27:11.589Z,27.46
2022-08-25T07:29:42.247Z,27.32
2022-08-25T07:32:11.817Z,28.22
2022-08-25T07:34:59.495Z,28.77
2022-08-25T07:37:47.680Z,29.41
2022-08-25T07:40:19.812Z,28.80
2022-08-25T07:42:50.947Z,28.88
2022-08-25T07:45:21.535Z,29.01
2022-08-25T07:47:53.837Z,28.16
2022-08-25T07:50:24.200Z,27.69
2022-08-25T07:52:55.066Z,27.77
2022-08-25T07:55:24.954Z,27.63
2022-08-25T07:57:56.048Z,27.31
2022-08-25T08:00:30.067Z,27.54
2022-08-25T08:02:59.873Z,27.87
2022-08-25T08:05:30.269Z,28.12
2022-08-25T08:07:59.498Z,28.47
2022-08-25T08:10:48.158Z,28.44
2022-08-25T08:13:18.664Z,28.31
2022-08-25T08:15:48.332Z,29.18
2022-08-25T08:18:18.444Z,29.58
2022-08-25T08:20:50.103Z,29.23
2022-08-25T08:23:19.259Z,28.88
2022-08-25T08:25:48.209Z,28.62
2022-08-25T08:28:17.140Z,29.01
2022-08-25T08:30:53.094Z,28.50
2022-08-25T08:33:24.993Z,28.37
2022-08-25T08:36:00.107Z,28.55
2022-08-25T08:38:35.298Z,28.18
2022-08-25T08:42:07.332Z,28.38
2022-08-25T08:44:42.163Z,28.69
2022-08-25T08:47:22.479Z,28.95
2022-08-25T08:50:01.655Z,29.03
2022-08-25T08:52:41.965Z,29.74
2022-08-25T08:55:20.614Z,30.24
2022-08-25T08:57:53.170Z,30.46
2022-08-25T09:00:24.345Z,30.05
2022-08-25T09:02:59.782Z,30.35
2022-08-25T09:05:30.969Z,30.87
2022-08-25T09:08:08.638Z,30.76
2022-08-25T09:10:58.962Z,30.90
2022-08-25T09:13:38.311Z,31.11
2022-08-25T09:16:34.806Z,31.37
2022-08-25T09:19:23.861Z,31.13
2022-08-25T09:22:01.154Z,31.70
2022-08-25T09:24:44.792Z,32.14
2022-08-25T09:27:25.313Z,32.88
2022-08-25T09:30:05.266Z,32.06
2022-08-25T09:32:37.147Z,31.64
2022-08-25T09:35:08.825Z,32.03
2022-08-25T09:37:37.956Z,31.35
2022-08-25T09:40:10.290Z,31.03
2022-08-25T09:42:51.479Z,31.86
2022-08-25T09:45:44.429Z,32.24
2022-08-25T09:48:26.218Z,32.30
2022-08-25T09:51:02.475Z,32.27
2022-08-25T09:53:33.940Z,32.43
2022-08-25T09:56:08.112Z,32.89
2022-08-25T09:58:37.456Z,31.97
2022-08-25T10:01:14.822Z,32.64
2022-08-25T10:03:58.894Z,33.45
2022-08-25T10:06:31.648Z,33.69
2022-08-25T10:09:03.905Z,33.24
2022-08-25T10:11:41.581Z,32.83
2022-08-25T10:14:27.730Z,32.34
2022-08-25T10:17:15.172Z,32.68
2022-08-25T10:19:44.272Z,32.71
2022-08-25T10:22:22.504Z,32.90
2022-08-25T10:24:51.752Z,32.23
2022-08-25T10:27:29.126Z,30.69
2022-08-25T10:30:08.041Z,30.80
2022-08-25T10:33:10.070Z,30.28
2022-08-25T10:35:53.759Z,30.42
2022-08-25T10:38:36.629Z,31.23
2022-08-25T10:41:28.309Z,32.14
2022-08-25T10:44:31.997Z,32.22
2022-08-25T10:47:15.153Z,31.71
2022-08-25T10:49:47.375Z,32.49
2022-08-25T10:52:22.946Z,32.07
2022-08-25T10:55:05.781Z,33.02
2022-08-25T10:57:41.099Z,32.72
2022-08-25T11:00:15.588Z,33.47
2022-08-25T11:03:01.234Z,33.62
2022-08-25T11:05:36.882Z,33.60
2022-08-25T11:08:11.600Z,33.56
2022-08-25T11:10:45.932Z,34.22
2022-08-25T11:13:23.670Z,34.39
2022-08-25T11:16:16.403Z,33.34
2022-08-25T11:18:53.201Z,33.86
2022-08-25T11:21:28.475Z,33.88
2022-08-25T11:24:05.820Z,34.47
2022-08-25T11:26:38.505Z,34.51
2022-08-25T11:29:15.931Z,33.12
2022-08-25T11:31:53.390Z,32.56
2022-08-25T11:34:23.883Z,31.66
2022-08-25T11:36:56.360Z,32.47
2022-08-25T11:39:38.647Z,32.63
2022-08-25T11:42:20.477Z,33.02
2022-08-25T11:44:59.750Z,33.94
2022-08-25T11:47:45.614Z,34.40
2022-08-25T11:50:29.858Z,34.33
2022-08-25T11:53:26.552Z,34.17
2022-08-25T11:56:02.551Z,34.31
2022-08-25T11:58:49.712Z,34.94
2022-08-25T12:01:58.416Z,34.72
2022-08-25T12:04:44.126Z,33.02
2022-08-25T12:07:26.785Z,32.70
2022-08-25T12:10:20.915Z,32.81
2022-08-25T12:13:22.164Z,32.16
2022-08-25T12:16:01.330Z,31.98
2022-08-25T12:18:46.465Z,32.52
2022-08-25T12:21:31.162Z,33.31
2022-08-25T12:24:12.211Z,33.08
2022-08-25T12:26:50.065Z,33.94
2022-08-25T12:29:42.388Z,34.74
2022-08-25T12:32:46.985Z,34.51
2022-08-25T12:35:27.155Z,34.10
2022-08-25T12:38:04.827Z,33.81
2022-08-25T12:40:40.847Z,33.47
2022-08-25T12:43:26.817Z,33.01
2022-08-25T12:46:16.611Z,31.91
2022-08-25T12:48:58.488Z,31.78
2022-08-25T12:51:30.147Z,31.59
2022-08-25T12:54:12.548Z,31.90
2022-08-25T12:56:48.934Z,31.70
2022-08-25T12:59:20.472Z,32.62
2022-08-25T13:02:51.585Z,33.03
2022-08-25T13:05:47.835Z,32.13
2022-08-25T13:08:47.057Z,32.10
2022-08-25T13:11:22.685Z,32.74
2022-08-25T13:13:58.782Z,32.25
2022-08-25T13:16:30.590Z,31.79
2022-08-25T13:19:01.654Z,31.55
2022-08-25T13:21:37.213Z,31.46
2022-08-25T13:24:10.464Z,31.17
2022-08-25T13:26:48.408Z,31.61
2022-08-25T13:29:21.912Z,32.24
2022-08-25T13:31:57.584Z,32.90
2022-08-25T13:34:30.502Z,32.81
2022-08-25T13:37:27.182Z,33.25
2022-08-25T13:40:10.939Z,32.93
2022-08-25T13:42:42.406Z,33.27
2022-08-25T13:45:16.608Z,33.06
2022-08-25T13:47:47.993Z,31.97
2022-08-25T13:50:20.256Z,32.48
2022-08-25T13:52:54.345Z,32.64
2022-08-25T13:55:27.515Z,32.45
2022-08-25T13:57:59.375Z,32.52
2022-08-25T14:00:33.124Z,32.25
2022-08-25T14:03:08.773Z,32.70
2022-08-25T14:05:45.637Z,32.19
2022-08-25T14:08:33.047Z,32.63
2022-08-25T14:11:15.096Z,32.69
2022-08-25T14:13:45.435Z,32.66
2022-08-25T14:16:17.592Z,32.60
2022-08-25T14:18:52.538Z,32.84
2022-08-25T14:21:26.304Z,32.75
2022-08-25T14:23:58.359Z,33.59
2022-08-25T14:26:29.070Z,33.37
2022-08-25T14:28:59.571Z,33.00
2022-08-25T14:31:32.383Z,32.86
2022-08-25T14:34:04.160Z,31.98
2022-08-25T14:36:36.211Z,31.59
2022-08-25T14:39:08.917Z,32.12
2022-08-25T14:41:40.867Z,32.34
2022-08-25T14:44:11.669Z,32.30
2022-08-25T14:46:46.660Z,32.66
2022-08-25T14:49:24.688Z,33.01
2022-08-25T14:51:55.315Z,32.78
2022-08-25T14:54:28.589Z,32.43
2022-08-25T14:56:58.674Z,32.29
2022-08-25T14:59:29.412Z,31.21
2022-08-25T15:01:58.577Z,31.16
2022-08-25T15:04:30.190Z,31.46
2022-08-25T15:07:01.673Z,31.61
2022-08-25T15:09:33.764Z,32.28
2022-08-25T15:12:02.802Z,31.40
2022-08-25T15:14:33.282Z,31.83
2022-08-25T15:17:03.421Z,30.82
2022-08-25T15:19:32.451Z,30.48
2022-08-25T15:22:01.876Z,30.53
2022-08-25T15:24:35.007Z,30.05
2022-08-25T15:27:10.010Z,30.41
2022-08-25T15:29:40.431Z,30.29
2022-08-25T15:32:10.376Z,30.06
2022-08-25T15:34:39.755Z,29.96
2022-08-25T15:37:11.306Z,30.01
2022-08-25T15:39:43.157Z,29.64
2022-08-25T15:42:14.025Z,29.82
2022-08-25T15:44:53.367Z,30.10
2022-08-25T15:47:24.205Z,30.14
2022-08-25T15:50:04.109Z,30.38
2022-08-25T15:52:46.121Z,29.85
2022-08-25T15:55:19.992Z,30.14
2022-08-25T15:57:49.688Z,30.08
2022-08-25T16:00:20.033Z,29.82
2022-08-25T16:02:50.859Z,29.89
2022-08-25T16:05:25.650Z,29.46
2022-08-25T16:07:55.308Z,29.34
2022-08-25T16:10:25.541Z,29.70
2022-08-25T16:12:54.462Z,29.80
2022-08-25T16:15:28.720Z,30.00
2022-08-25T16:18:00.173Z,29.67
2022-08-25T16:20:30.064Z,28.34
2022-08-25T16:23:02.897Z,28.61
2022-08-25T16:25:36.340Z,28.86
2022-08-25T16:28:05.542Z,29.26
2022-08-25T16:30:34.378Z,28.82
2022-08-25T16:33:03.615Z,28.71
2022-08-25T16:35:35.254Z,28.62
2022-08-25T16:38:09.466Z,28.26
2022-08-25T16:40:43.632Z,28.37
2022-08-25T16:43:13.732Z,28.46
2022-08-25T16:45:42.581Z,28.47
2022-08-25T16:48:11.621Z,27.49
2022-08-25T16:50:40.847Z,28.04
2022-08-25T16:53:27.100Z,27.18
2022-08-25T16:56:03.151Z,27.79
2022-08-25T16:58:33.140Z,28.15
2022-08-25T17:01:07.207Z,28.18
2022-08-25T17:03:39.863Z,28.23
2022-08-25T17:06:14.300Z,27.66
2022-08-25T17:08:44.188Z,27.65
2022-08-25T17:11:17.952Z,27.56
2022-08-25T17:13:49.724Z,28.01
2022-08-25T17:16:21.199Z,27.94
2022-08-25T17:18:50.204Z,28.28
2022-08-25T17:21:24.418Z,28.17
2022-08-25T17:23:55.833Z,27.75
2022-08-25T17:26:29.060Z,27.79
2022-08-25T17:28:59.333Z,27.82
2022-08-25T17:31:29.906Z,27.99
2022-08-25T17:34:00.181Z,27.65
2022-08-25T17:36:29.153Z,27.68
2022-08-25T17:38:58.034Z,27.63
2022-08-25T17:41:28.309Z,27.89
2022-08-25T17:43:57.248Z,27.92
2022-08-25T17:46:26.191Z,27.99
2022-08-25T17:48:55.854Z,28.11
2022-08-25T17:51:24.763Z,28.14
2022-08-25T17:53:54.711Z,28.06
2022-08-25T17:56:27.259Z,27.69
2022-08-25T17:58:58.141Z,27.54
2022-08-25T18:01:29.406Z,27.30
2022-08-25T18:03:59.509Z,27.25
2022-08-25T18:06:31.086Z,27.04
2022-08-25T18:09:01.512Z,27.25
2022-08-25T18:11:32.499Z,27.39
2022-08-25T18:14:02.789Z,27.19
2022-08-25T18:16:31.712Z,27.38
2022-08-25T18:19:00.647Z,27.36
2022-08-25T18:21:30.917Z,27.18
2022-08-25T18:24:01.704Z,26.95
2022-08-25T18:26:30.648Z,26.75
2022-08-25T18:29:02.315Z,26.49
2022-08-25T18:31:31.378Z,26.42
2022-08-25T18:34:01.139Z,26.63
2022-08-25T18:36:30.228Z,26.49
2022-08-25T18:39:16.592Z,26.34
2022-08-25T18:41:45.917Z,26.40
2022-08-25T18:44:16.177Z,26.24
2022-08-25T18:46:46.021Z,26.26
2022-08-25T18:49:17.245Z,26.12
2022-08-25T18:51:47.286Z,26.00
2022-08-25T18:54:23.145Z,26.29
2022-08-25T18:56:54.692Z,26.61
2022-08-25T18:59:24.995Z,26.89
2022-08-25T19:01:54.888Z,26.50
2022-08-25T19:04:31.501Z,26.08
2022-08-25T19:07:02.010Z,25.83
2022-08-25T19:09:32.650Z,25.97
2022-08-25T19:12:02.205Z,26.23
2022-08-25T19:14:32.554Z,26.12
2022-08-25T19:17:01.689Z,25.51
2022-08-25T19:19:31.387Z,24.97
2022-08-25T19:22:00.847Z,24.64
2022-08-25T19:24:29.888Z,24.72
2022-08-25T19:27:02.366Z,24.84
2022-08-25T19:29:32.872Z,24.20
2022-08-25T19:32:02.585Z,23.31
2022-08-25T19:34:35.045Z,23.48
2022-08-25T19:37:15.020Z,24.16
2022-08-25T19:39:52.948Z,24.33
2022-08-25T19:42:35.417Z,24.60
2022-08-25T19:45:10.689Z,24.86
2022-08-25T19:47:41.425Z,24.96
2022-08-25T19:50:16.809Z,24.77
2022-08-25T19:52:46.933Z,24.97
2022-08-25T19:55:19.776Z,24.55
2022-08-25T19:57:48.910Z,24.15
2022-08-25T20:00:26.041Z,24.07
2022-08-25T20:02:55.017Z,24.09
2022-08-25T20:05:24.830Z,24.18
2022-08-25T20:07:56.459Z,24.25
2022-08-25T20:10:26.976Z,24.49
2022-08-25T20:12:57.513Z,24.71
2022-08-25T20:15:34.487Z,24.97
2022-08-25T20:18:08.652Z,24.23
2022-08-25T20:20:37.684Z,24.54
2022-08-25T20:23:26.459Z,24.65
2022-08-25T20:25:56.805Z,25.01
2022-08-25T20:28:25.645Z,25.03
2022-08-25T20:30:58.253Z,24.89
2022-08-25T20:33:27.275Z,24.92
2022-08-25T20:35:56.067Z,24.86
2022-08-25T20:38:29.910Z,24.59
2022-08-25T20:40:58.865Z,24.93
2022-08-25T20:43:28.043Z,25.23
2022-08-25T20:46:02.564Z,25.07
2022-08-25T20:48:32.549Z,25.37
2022-08-25T20:51:06.102Z,25.42
2022-08-25T20:53:36.380Z,25.30
2022-08-25T20:56:09.335Z,25.47
2022-08-25T20:58:38.625Z,26.07
2022-08-25T21:01:20.329Z,26.20
2022-08-25T21:03:52.625Z,26.12
2022-08-25T21:06:21.520Z,26.17
2022-08-25T21:08:50.353Z,26.09
2022-08-25T21:11:19.516Z,26.20
2022-08-25T21:13:48.509Z,25.89
2022-08-25T21:16:19.689Z,25.92
2022-08-25T21:18:48.701Z,26.06
2022-08-25T21:21:18.049Z,26.06
2022-08-25T21:23:50.587Z,26.13
2022-08-25T21:26:22.897Z,25.88
2022-08-25T21:28:52.848Z,25.70
2022-08-25T21:31:23.580Z,25.70
2022-08-25T21:33:53.455Z,25.70
2022-08-25T21:36:23.299Z,25.57
2022-08-25T21:38:52.828Z,25.56
2022-08-25T21:41:24.432Z,25.36
2022-08-25T21:43:53.901Z,25.54
2022-08-25T21:46:27.674Z,25.81
2022-08-25T21:48:58.481Z,25.79
2022-08-25T21:51:31.940Z,25.81
2022-08-25T21:54:10.237Z,25.73
2022-08-25T21:56:41.212Z,25.72
2022-08-25T21:59:14.159Z,25.52
2022-08-25T22:01:45.636Z,25.36
2022-08-25T22:04:15.848Z,25.27
2022-08-25T22:06:44.930Z,25.51
2022-08-25T22:09:15.983Z,25.68
2022-08-25T22:11:45.763Z,25.79
2022-08-25T22:14:16.127Z,25.47
2022-08-25T22:16:46.614Z,25.67
2022-08-25T22:19:15.970Z,25.48
2022-08-25T22:21:45.606Z,25.22
2022-08-25T22:24:14.473Z,25.22
2022-08-25T22:26:43.567Z,25.14
2022-08-25T22:29:23.633Z,24.26
2022-08-25T22:32:00.661Z,24.54
2022-08-25T22:34:33.416Z,23.97
2022-08-25T22:37:03.462Z,23.49
2022-08-25T22:39:34.590Z,23.46
2022-08-25T22:42:03.706Z,23.46
2022-08-25T22:44:32.473Z,23.81
2022-08-25T22:47:03.230Z,23.48
2022-08-25T22:49:35.284Z,23.78
2022-08-25T22:52:05.269Z,24.14
2022-08-25T22:54:35.339Z,24.28
2022-08-25T22:57:06.724Z,24.24
2022-08-25T22:59:35.902Z,24.22
2022-08-25T23:02:06.376Z,24.57
2022-08-25T23:04:35.876Z,24.61
2022-08-25T23:07:10.411Z,24.56
2022-08-25T23:09:39.409Z,24.02
2022-08-25T23:12:09.007Z,24.02
2022-08-25T23:14:42.319Z,24.08
2022-08-25T23:17:14.364Z,23.94
2022-08-25T23:19:43.283Z,24.18
2022-08-25T23:22:12.475Z,24.17
2022-08-25T23:24:43.968Z,24.21
2022-08-25T23:27:14.810Z,24.01
2022-08-25T23:29:48.435Z,24.07
2022-08-25T23:32:19.790Z,24.12
2022-08-25T23:34:48.808Z,24.08
2022-08-25T23:37:18.483Z,24.09
2022-08-25T23:39:50.069Z,24.07
2022-08-25T23:42:20.387Z,24.21
2022-08-25T23:44:50.450Z,24.29
2022-08-25T23:47:20.815Z,24.30
2022-08-25T23:49:49.890Z,24.14
2022-08-25T23:52:18.948Z,24.16
2022-08-25T23:54:48.180Z,24.23
2022-08-25T23:57:17.200Z,24.24
2022-08-25T23:59:47.870Z,24.15
